createdAt,value
2022-11-23T00:00:48.785Z,989.3
2022-11-23T00:02:05.809Z,989.4
2022-11-23T00:03:22.725Z,989.4
2022-11-23T00:04:39.844Z,989.3
2022-11-23T00:05:56.739Z,989.3
2022-11-23T00:07:13.770Z,989.3
2022-11-23T00:08:31.132Z,989.3
2022-11-23T00:09:48.696Z,989.2
2022-11-23T00:11:05.732Z,989.3
2022-11-23T00:12:22.803Z,989.3
2022-11-23T00:13:39.706Z,989.4
2022-11-23T00:14:56.710Z,989.4
2022-11-23T00:16:13.848Z,989.3
2022-11-23T00:17:30.721Z,989.3
2022-11-23T00:18:47.739Z,989.3
2022-11-23T00:20:04.738Z,989.3
2022-11-23T00:21:21.737Z,989.3
2022-11-23T00:22:38.775Z,989.3
2022-11-23T00:23:55.719Z,989.3
2022-11-23T00:25:12.771Z,989.3
2022-11-23T00:26:29.854Z,989.3
2022-11-23T00:27:46.751Z,989.3
2022-11-23T00:29:03.726Z,989.4
2022-11-23T00:30:20.724Z,989.4
2022-11-23T00:31:37.787Z,989.4
2022-11-23T00:32:54.764Z,989.4
2022-11-23T00:34:11.738Z,989.4
2022-11-23T00:35:28.742Z,989.4
2022-11-23T00:36:45.768Z,989.4
2022-11-23T00:38:02.735Z,989.4
2022-11-23T00:39:19.743Z,989.4
2022-11-23T00:40:36.746Z,989.4
2022-11-23T00:41:53.778Z,989.4
2022-11-23T00:43:10.823Z,989.4
2022-11-23T00:44:27.747Z,989.5
2022-11-23T00:45:44.758Z,989.4
2022-11-23T00:47:01.777Z,989.5
2022-11-23T00:48:18.784Z,989.5
2022-11-23T00:49:35.781Z,989.5
2022-11-23T00:50:53.722Z,989.5
2022-11-23T00:52:11.265Z,989.5
2022-11-23T00:53:27.758Z,989.5
2022-11-23T00:54:44.783Z,989.5
2022-11-23T00:56:01.803Z,989.5
2022-11-23T00:57:18.777Z,989.5
2022-11-23T00:58:35.767Z,989.5
2022-11-23T00:59:52.800Z,989.4
2022-11-23T01:01:09.976Z,989.5
2022-11-23T01:02:26.810Z,989.5
2022-11-23T01:03:43.779Z,989.4
2022-11-23T01:05:00.881Z,989.4
2022-11-23T01:06:17.778Z,989.4
2022-11-23T01:07:34.828Z,989.4
2022-11-23T01:08:51.780Z,989.3
2022-11-23T01:10:08.792Z,989.3
2022-11-23T01:11:25.791Z,989.3
2022-11-23T01:12:42.814Z,989.2
2022-11-23T01:13:59.786Z,989.3
2022-11-23T01:15:16.781Z,989.3
2022-11-23T01:16:33.793Z,989.3
2022-11-23T01:17:50.922Z,989.4
2022-11-23T01:19:08.069Z,989.4
2022-11-23T01:20:24.856Z,989.4
2022-11-23T01:21:41.801Z,989.4
2022-11-23T01:22:58.865Z,989.4
2022-11-23T01:24:15.852Z,989.5
2022-11-23T01:25:32.823Z,989.4
2022-11-23T01:26:49.919Z,989.5
2022-11-23T01:28:06.891Z,989.5
2022-11-23T01:29:23.833Z,989.5
2022-11-23T01:30:41.352Z,989.5
2022-11-23T01:31:57.836Z,989.5
2022-11-23T01:33:14.878Z,989.5
2022-11-23T01:34:31.816Z,989.5
2022-11-23T01:35:49.120Z,989.5
2022-11-23T01:37:05.854Z,989.5
2022-11-23T01:38:22.819Z,989.5
2022-11-23T01:39:39.819Z,989.5
2022-11-23T01:40:56.855Z,989.5
2022-11-23T01:42:17.667Z,989.5
2022-11-23T01:43:31.675Z,989.5
2022-11-23T01:44:49.498Z,989.5
2022-11-23T01:46:07.066Z,989.5
2022-11-23T01:47:23.901Z,989.5
2022-11-23T01:48:41.661Z,989.5
2022-11-23T01:49:58.827Z,989.5
2022-11-23T01:51:15.871Z,989.6
2022-11-23T01:52:32.910Z,989.5
2022-11-23T01:53:49.840Z,989.5
2022-11-23T01:55:08.550Z,989.6
2022-11-23T01:56:24.480Z,989.6
2022-11-23T01:57:41.874Z,989.7
2022-11-23T01:58:58.857Z,989.6
2022-11-23T02:00:16.699Z,989.6
2022-11-23T02:01:33.980Z,989.6
2022-11-23T02:02:50.854Z,989.6
2022-11-23T02:04:07.891Z,989.7
2022-11-23T02:05:24.857Z,989.7
2022-11-23T02:06:41.925Z,989.7
2022-11-23T02:07:59.151Z,989.7
2022-11-23T02:09:15.872Z,989.7
2022-11-23T02:10:32.863Z,989.7
2022-11-23T02:11:50.699Z,989.7
2022-11-23T02:13:07.917Z,989.7
2022-11-23T02:14:24.901Z,989.7
2022-11-23T02:15:41.876Z,989.7
2022-11-23T02:16:59.534Z,989.7
2022-11-23T02:18:16.905Z,989.7
2022-11-23T02:19:34.271Z,989.7
2022-11-23T02:20:50.880Z,989.7
2022-11-23T02:22:07.975Z,989.7
2022-11-23T02:23:24.883Z,989.7
2022-11-23T02:24:41.885Z,989.7
2022-11-23T02:25:58.886Z,989.7
2022-11-23T02:27:15.975Z,989.7
2022-11-23T02:28:32.890Z,989.7
2022-11-23T02:29:50.133Z,989.7
2022-11-23T02:31:06.886Z,989.6
2022-11-23T02:32:23.958Z,989.6
2022-11-23T02:33:40.916Z,989.6
2022-11-23T02:34:57.917Z,989.6
2022-11-23T02:36:14.910Z,989.7
2022-11-23T02:37:31.924Z,989.7
2022-11-23T02:38:49.030Z,989.7
2022-11-23T02:40:06.254Z,989.7
2022-11-23T02:41:22.959Z,989.6
2022-11-23T02:44:27.904Z,989.6
2022-11-23T02:45:44.934Z,989.7
2022-11-23T02:47:02.029Z,989.7
2022-11-23T02:48:23.680Z,989.7
2022-11-23T02:49:41.072Z,989.6
2022-11-23T02:50:57.948Z,989.6
2022-11-23T02:52:15.122Z,989.6
2022-11-23T02:53:31.943Z,989.7
2022-11-23T02:54:49.145Z,989.7
2022-11-23T02:56:06.780Z,989.7
2022-11-23T02:57:23.925Z,989.7
2022-11-23T02:58:40.925Z,989.7
2022-11-23T02:59:57.981Z,989.7
2022-11-23T03:01:15.015Z,989.7
2022-11-23T03:02:32.016Z,989.7
2022-11-23T03:03:48.929Z,989.7
2022-11-23T03:05:05.970Z,989.7
2022-11-23T03:06:23.022Z,989.7
2022-11-23T03:07:40.063Z,989.7
2022-11-23T03:08:56.934Z,989.7
2022-11-23T03:10:14.035Z,989.7
2022-11-23T03:11:30.959Z,989.7
2022-11-23T03:12:47.987Z,989.7
2022-11-23T03:14:05.179Z,989.7
2022-11-23T03:15:21.998Z,989.7
2022-11-23T03:16:38.961Z,989.6
2022-11-23T03:17:56.040Z,989.6
2022-11-23T03:19:12.950Z,989.6
2022-11-23T03:20:30.037Z,989.6
2022-11-23T03:21:47.081Z,989.6
2022-11-23T03:23:03.976Z,989.6
2022-11-23T03:24:21.027Z,989.6
2022-11-23T03:25:38.001Z,989.6
2022-11-23T03:26:55.624Z,989.6
2022-11-23T03:28:12.969Z,989.7
2022-11-23T03:29:30.468Z,989.7
2022-11-23T03:30:46.999Z,989.7
2022-11-23T03:32:03.991Z,989.7
2022-11-23T03:33:20.971Z,989.7
2022-11-23T03:34:38.004Z,989.7
2022-11-23T03:35:55.133Z,989.7
2022-11-23T03:37:12.078Z,989.6
2022-11-23T03:38:28.971Z,989.6
2022-11-23T03:39:47.600Z,989.6
2022-11-23T03:41:02.979Z,989.6
2022-11-23T03:42:20.069Z,989.6
2022-11-23T03:43:36.999Z,989.6
2022-11-23T03:44:53.990Z,989.5
2022-11-23T03:46:11.150Z,989.5
2022-11-23T03:47:28.035Z,989.5
2022-11-23T03:48:44.994Z,989.5
2022-11-23T03:50:02.039Z,989.6
2022-11-23T03:51:18.993Z,989.5
2022-11-23T03:52:36.077Z,989.5
2022-11-23T03:53:52.995Z,989.6
2022-11-23T03:55:10.029Z,989.6
2022-11-23T03:56:26.999Z,989.5
2022-11-23T03:57:43.996Z,989.6
2022-11-23T03:59:01.034Z,989.6
2022-11-23T04:00:18.067Z,989.6
2022-11-23T04:01:35.026Z,989.6
2022-11-23T04:02:52.008Z,989.5
2022-11-23T04:04:09.013Z,989.6
2022-11-23T04:05:26.064Z,989.6
2022-11-23T04:06:43.005Z,989.5
2022-11-23T04:08:00.117Z,989.5
2022-11-23T04:09:17.064Z,989.6
2022-11-23T04:10:34.029Z,989.6
2022-11-23T04:11:51.014Z,989.6
2022-11-23T04:13:08.049Z,989.6
2022-11-23T04:14:25.022Z,989.6
2022-11-23T04:15:42.025Z,989.6
2022-11-23T04:16:59.021Z,989.5
2022-11-23T04:18:16.086Z,989.5
2022-11-23T04:19:33.347Z,989.5
2022-11-23T04:20:50.052Z,989.5
2022-11-23T04:22:07.026Z,989.5
2022-11-23T04:23:24.086Z,989.5
2022-11-23T04:24:41.036Z,989.5
2022-11-23T04:25:58.982Z,989.5
2022-11-23T04:27:16.519Z,989.5
2022-11-23T04:28:33.070Z,989.5
2022-11-23T04:29:50.047Z,989.5
2022-11-23T04:31:07.067Z,989.5
2022-11-23T04:32:24.135Z,989.5
2022-11-23T04:33:41.038Z,989.5
2022-11-23T04:34:58.051Z,989.6
2022-11-23T04:36:15.151Z,989.5
2022-11-23T04:37:32.069Z,989.6
2022-11-23T04:38:49.140Z,989.6
2022-11-23T04:40:06.138Z,989.6
2022-11-23T04:41:23.083Z,989.6
2022-11-23T04:42:40.048Z,989.6
2022-11-23T04:43:57.132Z,989.6
2022-11-23T04:45:14.062Z,989.6
2022-11-23T04:46:31.060Z,989.6
2022-11-23T04:47:48.086Z,989.6
2022-11-23T04:49:05.132Z,989.6
2022-11-23T04:50:22.169Z,989.6
2022-11-23T04:51:39.084Z,989.6
2022-11-23T04:52:56.129Z,989.6
2022-11-23T04:54:13.178Z,989.6
2022-11-23T04:55:30.076Z,989.5
2022-11-23T04:56:47.084Z,989.5
2022-11-23T04:58:04.103Z,989.5
2022-11-23T04:59:21.109Z,989.5
2022-11-23T05:00:38.150Z,989.5
2022-11-23T05:01:55.074Z,989.5
2022-11-23T05:03:12.088Z,989.5
2022-11-23T05:04:29.114Z,989.5
2022-11-23T05:05:46.088Z,989.5
2022-11-23T05:07:03.926Z,989.5
2022-11-23T05:08:21.824Z,989.5
2022-11-23T05:09:39.136Z,989.6
2022-11-23T05:10:56.629Z,989.6
2022-11-23T05:12:13.541Z,989.6
2022-11-23T05:13:30.114Z,989.6
2022-11-23T05:14:47.113Z,989.6
2022-11-23T05:16:04.164Z,989.6
2022-11-23T05:17:21.518Z,989.6
2022-11-23T05:18:38.135Z,989.6
2022-11-23T05:19:55.203Z,989.6
2022-11-23T05:21:12.133Z,989.6
2022-11-23T05:22:29.578Z,989.6
2022-11-23T05:23:46.154Z,989.6
2022-11-23T05:25:03.159Z,989.6
2022-11-23T05:26:20.170Z,989.6
2022-11-23T05:27:38.561Z,989.6
2022-11-23T05:28:57.198Z,989.7
2022-11-23T05:30:14.201Z,989.7
2022-11-23T05:31:31.156Z,989.7
2022-11-23T05:32:48.118Z,989.7
2022-11-23T05:34:05.158Z,989.7
2022-11-23T05:35:22.146Z,989.7
2022-11-23T05:36:42.176Z,989.6
2022-11-23T05:37:56.751Z,989.6
2022-11-23T05:39:14.191Z,989.6
2022-11-23T05:40:31.270Z,989.6
2022-11-23T05:41:48.132Z,989.6
2022-11-23T05:43:05.204Z,989.6
2022-11-23T05:44:22.171Z,989.6
2022-11-23T05:45:39.972Z,989.6
2022-11-23T05:46:57.176Z,989.6
2022-11-23T05:48:14.173Z,989.6
2022-11-23T05:49:31.501Z,989.6
2022-11-23T05:50:48.146Z,989.6
2022-11-23T05:52:05.871Z,989.6
2022-11-23T05:53:23.148Z,989.6
2022-11-23T05:54:40.166Z,989.7
2022-11-23T05:55:57.186Z,989.7
2022-11-23T05:57:14.155Z,989.7
2022-11-23T05:58:31.236Z,989.7
2022-11-23T05:59:48.172Z,989.7
2022-11-23T06:01:05.176Z,989.7
2022-11-23T06:02:22.198Z,989.7
2022-11-23T06:03:39.307Z,989.7
2022-11-23T06:04:56.213Z,989.7
2022-11-23T06:06:13.164Z,989.7
2022-11-23T06:07:30.895Z,989.6
2022-11-23T06:08:49.275Z,989.7
2022-11-23T06:10:05.532Z,989.7
2022-11-23T06:11:22.257Z,989.7
2022-11-23T06:12:39.404Z,989.7
2022-11-23T06:13:56.349Z,989.8
2022-11-23T06:15:13.220Z,989.8
2022-11-23T06:16:30.346Z,989.9
2022-11-23T06:17:47.176Z,989.9
2022-11-23T06:19:04.187Z,989.9
2022-11-23T06:20:21.186Z,989.9
2022-11-23T06:21:38.253Z,990
2022-11-23T06:22:55.178Z,990
2022-11-23T06:24:12.206Z,990
2022-11-23T06:25:29.190Z,990
2022-11-23T06:26:46.285Z,990
2022-11-23T06:28:03.340Z,990
2022-11-23T06:29:20.224Z,990
2022-11-23T06:30:37.207Z,990.1
2022-11-23T06:31:54.249Z,990
2022-11-23T06:33:11.212Z,990.1
2022-11-23T06:34:28.205Z,990
2022-11-23T06:35:45.279Z,990.1
2022-11-23T06:37:02.268Z,990.1
2022-11-23T06:38:19.211Z,990.1
2022-11-23T06:39:36.236Z,990.1
2022-11-23T06:40:53.240Z,990.1
2022-11-23T06:42:36.940Z,990.1
2022-11-23T06:43:28.307Z,990.1
2022-11-23T06:44:45.277Z,990.1
2022-11-23T06:46:02.403Z,990.2
2022-11-23T06:47:24.549Z,990.2
2022-11-23T06:48:36.307Z,990.1
2022-11-23T06:49:53.264Z,990.2
2022-11-23T06:51:10.267Z,990.1
2022-11-23T06:52:27.232Z,990.2
2022-11-23T06:53:44.244Z,990.2
2022-11-23T06:55:01.954Z,990.2
2022-11-23T06:56:19.234Z,990.3
2022-11-23T06:57:36.262Z,990.2
2022-11-23T06:58:53.268Z,990.2
2022-11-23T07:00:10.844Z,990.3
2022-11-23T07:01:28.293Z,990.3
2022-11-23T07:02:45.313Z,990.3
2022-11-23T07:04:02.245Z,990.3
2022-11-23T07:05:19.263Z,990.3
2022-11-23T07:06:36.275Z,990.3
2022-11-23T07:07:53.361Z,990.3
2022-11-23T07:09:10.277Z,990.3
2022-11-23T07:10:27.337Z,990.4
2022-11-23T07:11:44.247Z,990.3
2022-11-23T07:13:02.338Z,990.3
2022-11-23T07:14:19.278Z,990.3
2022-11-23T07:15:36.273Z,990.3
2022-11-23T07:16:54.147Z,990.3
2022-11-23T07:18:11.262Z,990.4
2022-11-23T07:19:28.279Z,990.4
2022-11-23T07:20:45.340Z,990.3
2022-11-23T07:22:02.257Z,990.3
2022-11-23T07:23:19.325Z,990.3
2022-11-23T07:24:39.619Z,990.3
2022-11-23T07:25:53.271Z,990.3
2022-11-23T07:27:10.325Z,990.3
2022-11-23T07:28:27.311Z,990.3
2022-11-23T07:29:44.366Z,990.3
2022-11-23T07:31:01.294Z,990.4
2022-11-23T07:32:18.271Z,990.4
2022-11-23T07:33:35.279Z,990.4
2022-11-23T07:34:52.296Z,990.4
2022-11-23T07:36:09.458Z,990.4
2022-11-23T07:37:26.285Z,990.4
2022-11-23T07:38:43.313Z,990.4
2022-11-23T07:40:01.363Z,990.4
2022-11-23T07:41:17.296Z,990.5
2022-11-23T07:42:39.722Z,990.5
2022-11-23T07:43:51.377Z,990.5
2022-11-23T07:45:08.419Z,990.5
2022-11-23T07:46:25.391Z,990.5
2022-11-23T07:47:42.289Z,990.5
2022-11-23T07:48:59.299Z,990.6
2022-11-23T07:50:16.364Z,990.6
2022-11-23T07:51:33.304Z,990.6
2022-11-23T07:52:50.691Z,990.6
2022-11-23T07:54:07.302Z,990.7
2022-11-23T07:55:24.350Z,990.7
2022-11-23T07:56:41.331Z,990.8
2022-11-23T07:57:58.308Z,990.8
2022-11-23T07:59:15.392Z,990.8
2022-11-23T08:00:32.332Z,990.7
2022-11-23T08:01:52.185Z,990.7
2022-11-23T08:03:33.361Z,990.8
2022-11-23T08:04:23.407Z,990.8
2022-11-23T08:05:40.320Z,990.8
2022-11-23T08:06:57.342Z,990.8
2022-11-23T08:08:14.420Z,990.8
2022-11-23T08:09:31.374Z,990.8
2022-11-23T08:10:53.248Z,990.8
2022-11-23T08:12:05.345Z,990.8
2022-11-23T08:13:22.393Z,990.8
2022-11-23T08:14:39.455Z,990.9
2022-11-23T08:15:56.467Z,990.8
2022-11-23T08:17:13.364Z,990.9
2022-11-23T08:18:30.369Z,990.9
2022-11-23T08:19:47.794Z,990.9
2022-11-23T08:21:04.379Z,990.9
2022-11-23T08:22:21.542Z,990.9
2022-11-23T08:23:38.466Z,990.8
2022-11-23T08:24:55.405Z,990.8
2022-11-23T08:26:13.938Z,990.8
2022-11-23T08:27:29.354Z,990.8
2022-11-23T08:28:46.346Z,990.7
2022-11-23T08:30:03.723Z,990.8
2022-11-23T08:31:20.387Z,990.8
2022-11-23T08:32:37.354Z,990.8
2022-11-23T08:33:56.634Z,990.8
2022-11-23T08:35:11.384Z,990.8
2022-11-23T08:36:28.795Z,990.8
2022-11-23T08:37:45.623Z,990.7
2022-11-23T08:39:02.430Z,990.7
2022-11-23T08:40:23.772Z,990.7
2022-11-23T08:41:36.444Z,990.7
2022-11-23T08:42:53.416Z,990.8
2022-11-23T08:44:10.396Z,990.8
2022-11-23T08:45:27.450Z,990.7
2022-11-23T08:46:44.380Z,990.7
2022-11-23T08:48:01.602Z,990.7
2022-11-23T08:49:18.368Z,990.7
2022-11-23T08:50:35.436Z,990.7
2022-11-23T08:51:52.384Z,990.7
2022-11-23T08:53:09.402Z,990.6
2022-11-23T08:54:26.407Z,990.6
2022-11-23T08:55:43.904Z,990.6
2022-11-23T08:57:00.837Z,990.6
2022-11-23T08:58:17.389Z,990.6
2022-11-23T08:59:34.512Z,990.6
2022-11-23T09:00:51.623Z,990.6
2022-11-23T09:02:08.442Z,990.6
2022-11-23T09:03:25.488Z,990.5
2022-11-23T09:04:42.471Z,990.5
2022-11-23T09:05:59.405Z,990.5
2022-11-23T09:07:16.451Z,990.5
2022-11-23T09:08:33.410Z,990.5
2022-11-23T09:09:50.574Z,990.5
2022-11-23T09:11:07.417Z,990.5
2022-11-23T09:12:24.443Z,990.5
2022-11-23T09:13:41.417Z,990.5
2022-11-23T09:14:58.445Z,990.5
2022-11-23T09:16:15.486Z,990.5
2022-11-23T09:17:32.408Z,990.4
2022-11-23T09:18:49.429Z,990.4
2022-11-23T09:20:06.466Z,990.4
2022-11-23T09:21:23.500Z,990.4
2022-11-23T09:22:40.853Z,990.4
2022-11-23T09:23:57.458Z,990.4
2022-11-23T09:25:14.504Z,990.5
2022-11-23T09:26:31.457Z,990.5
2022-11-23T09:27:48.428Z,990.5
2022-11-23T09:29:06.491Z,990.5
2022-11-23T09:30:23.641Z,990.5
2022-11-23T09:31:40.462Z,990.5
2022-11-23T09:32:57.479Z,990.5
2022-11-23T09:34:14.486Z,990.5
2022-11-23T09:35:31.456Z,990.6
2022-11-23T09:36:48.440Z,990.5
2022-11-23T09:38:05.513Z,990.6
2022-11-23T09:39:22.466Z,990.6
2022-11-23T09:40:39.473Z,990.5
2022-11-23T09:41:56.461Z,990.5
2022-11-23T09:43:13.550Z,990.5
2022-11-23T09:44:30.783Z,990.5
2022-11-23T09:45:47.715Z,990.4
2022-11-23T09:47:04.675Z,990.4
2022-11-23T09:48:21.498Z,990.4
2022-11-23T09:49:38.753Z,990.4
2022-11-23T09:50:55.525Z,990.4
2022-11-23T09:52:12.474Z,990.3
2022-11-23T09:53:29.821Z,990.3
2022-11-23T09:54:46.474Z,990.3
2022-11-23T09:56:03.507Z,990.3
2022-11-23T09:57:20.553Z,990.3
2022-11-23T09:58:37.503Z,990.3
2022-11-23T09:59:54.568Z,990.3
2022-11-23T10:01:11.707Z,990.2
2022-11-23T10:02:28.496Z,990.2
2022-11-23T10:03:48.667Z,990.2
2022-11-23T10:05:02.903Z,990.2
2022-11-23T10:06:19.520Z,990.1
2022-11-23T10:07:36.529Z,990.1
2022-11-23T10:08:53.631Z,990.1
2022-11-23T10:10:10.517Z,990.1
2022-11-23T10:11:27.536Z,990.2
2022-11-23T10:12:44.494Z,990.2
2022-11-23T10:14:01.725Z,990.2
2022-11-23T10:15:18.517Z,990.2
2022-11-23T10:16:35.520Z,990.1
2022-11-23T10:17:52.793Z,990.1
2022-11-23T10:19:09.507Z,990.2
2022-11-23T10:20:26.592Z,990.1
2022-11-23T10:21:43.523Z,990.1
2022-11-23T10:23:00.543Z,990.1
2022-11-23T10:24:17.498Z,990.1
2022-11-23T10:25:38.843Z,990.1
2022-11-23T10:26:51.601Z,990.1
2022-11-23T10:28:08.503Z,990.1
2022-11-23T10:29:25.545Z,990.2
2022-11-23T10:30:42.820Z,990.1
2022-11-23T10:31:59.546Z,990.1
2022-11-23T10:33:16.554Z,990.1
2022-11-23T10:34:34.223Z,990.1
2022-11-23T10:35:50.586Z,990.1
2022-11-23T10:37:07.539Z,990.1
2022-11-23T10:38:24.840Z,990.1
2022-11-23T10:39:41.522Z,990.1
2022-11-23T10:40:58.523Z,990
2022-11-23T10:42:15.565Z,990
2022-11-23T10:43:33.634Z,990
2022-11-23T10:44:50.549Z,990
2022-11-23T10:46:07.557Z,990
2022-11-23T10:47:24.578Z,990
2022-11-23T10:48:41.593Z,989.9
2022-11-23T10:49:58.587Z,989.9
2022-11-23T10:51:15.545Z,990
2022-11-23T10:52:32.960Z,989.9
2022-11-23T10:53:49.541Z,989.9
2022-11-23T10:55:06.540Z,989.9
2022-11-23T10:56:23.577Z,989.9
2022-11-23T10:57:40.774Z,990
2022-11-23T10:58:57.548Z,990
2022-11-23T11:00:14.709Z,989.9
2022-11-23T11:01:31.671Z,989.9
2022-11-23T11:02:48.703Z,990
2022-11-23T11:04:05.626Z,990
2022-11-23T11:05:31.476Z,990
2022-11-23T11:06:39.603Z,990
2022-11-23T11:07:56.608Z,990
2022-11-23T11:09:13.708Z,990
2022-11-23T11:10:30.568Z,990
2022-11-23T11:11:47.585Z,990
2022-11-23T11:13:04.566Z,990.1
2022-11-23T11:14:22.016Z,990.1
2022-11-23T11:15:46.813Z,990
2022-11-23T11:16:55.665Z,990
2022-11-23T11:18:12.602Z,990
2022-11-23T11:19:29.609Z,990.1
2022-11-23T11:20:46.645Z,990.1
2022-11-23T11:22:03.642Z,990.1
2022-11-23T11:23:21.006Z,990.1
2022-11-23T11:24:37.904Z,990
2022-11-23T11:25:54.772Z,990
2022-11-23T11:27:12.134Z,989.9
2022-11-23T11:28:28.617Z,989.9
2022-11-23T11:29:45.597Z,989.9
2022-11-23T11:31:03.055Z,989.9
2022-11-23T11:32:19.658Z,989.9
2022-11-23T11:33:36.694Z,989.9
2022-11-23T11:34:53.613Z,989.9
2022-11-23T11:36:10.596Z,989.9
2022-11-23T11:37:27.676Z,989.9
2022-11-23T11:38:56.292Z,989.9
2022-11-23T11:40:01.669Z,990
2022-11-23T11:41:18.619Z,990.1
2022-11-23T11:42:35.769Z,990.1
2022-11-23T11:43:52.761Z,990
2022-11-23T11:45:09.878Z,990
2022-11-23T11:46:29.342Z,990
2022-11-23T11:47:43.611Z,990
2022-11-23T11:49:00.678Z,990
2022-11-23T11:50:17.675Z,990
2022-11-23T11:51:34.687Z,990
2022-11-23T11:52:51.632Z,989.9
2022-11-23T11:54:08.708Z,990
2022-11-23T11:55:25.718Z,990
2022-11-23T11:56:42.852Z,990
2022-11-23T11:57:59.675Z,990
2022-11-23T11:59:16.663Z,990
2022-11-23T12:00:33.663Z,990
2022-11-23T12:01:50.625Z,990.1
2022-11-23T12:03:07.795Z,990.1
2022-11-23T12:04:24.642Z,990.1
2022-11-23T12:05:42.411Z,990
2022-11-23T12:06:58.640Z,990
2022-11-23T12:08:15.644Z,990
2022-11-23T12:09:33.150Z,990
2022-11-23T12:10:49.706Z,990
2022-11-23T12:12:06.781Z,990.1
2022-11-23T12:13:23.995Z,990.1
2022-11-23T12:14:40.708Z,990.1
2022-11-23T12:15:57.792Z,990.1
2022-11-23T12:17:32.252Z,990.1
2022-11-23T12:18:31.667Z,990.1
2022-11-23T12:19:48.656Z,990.1
2022-11-23T12:21:05.788Z,990.1
2022-11-23T12:22:24.140Z,990.1
2022-11-23T12:23:40.670Z,990.1
2022-11-23T12:24:58.064Z,990.1
2022-11-23T12:26:14.710Z,990
2022-11-23T12:27:31.712Z,990
2022-11-23T12:28:48.711Z,990
2022-11-23T12:30:05.823Z,990
2022-11-23T12:31:22.697Z,990.1
2022-11-23T12:32:39.695Z,990.1
2022-11-23T12:33:56.685Z,990.1
2022-11-23T12:35:14.012Z,990
2022-11-23T12:36:30.802Z,990
2022-11-23T12:37:47.748Z,990.1
2022-11-23T12:39:04.683Z,990.1
2022-11-23T12:40:21.701Z,990.1
2022-11-23T12:41:38.749Z,990.1
2022-11-23T12:42:55.725Z,990.1
2022-11-23T12:44:13.162Z,990.1
2022-11-23T12:45:29.690Z,990
2022-11-23T12:46:46.945Z,990.1
2022-11-23T12:48:03.986Z,990
2022-11-23T12:49:20.916Z,990.1
2022-11-23T12:50:37.713Z,990.1
2022-11-23T12:51:54.741Z,990.1
2022-11-23T12:53:11.700Z,990
2022-11-23T12:54:28.778Z,990
2022-11-23T12:55:45.725Z,990
2022-11-23T12:57:03.826Z,990
2022-11-23T12:58:20.748Z,990
2022-11-23T12:59:37.794Z,990
2022-11-23T13:00:55.204Z,990.1
2022-11-23T13:02:11.881Z,990
2022-11-23T13:03:28.741Z,990.1
2022-11-23T13:04:45.741Z,990.1
2022-11-23T13:06:03.165Z,990.1
2022-11-23T13:07:29.636Z,990.1
2022-11-23T13:08:36.880Z,990.1
2022-11-23T13:09:53.758Z,990.2
2022-11-23T13:11:10.796Z,990.1
2022-11-23T13:12:27.721Z,990.2
2022-11-23T13:13:44.917Z,990.2
2022-11-23T13:15:01.854Z,990.2
2022-11-23T13:16:18.887Z,990.2
2022-11-23T13:17:35.763Z,990.2
2022-11-23T13:18:53.859Z,990.2
2022-11-23T13:20:10.899Z,990.2
2022-11-23T13:21:27.742Z,990.2
2022-11-23T13:22:44.782Z,990.2
2022-11-23T13:24:01.775Z,990.2
2022-11-23T13:25:18.800Z,990.2
2022-11-23T13:26:35.761Z,990.2
2022-11-23T13:27:52.829Z,990.1
2022-11-23T13:29:09.804Z,990.2
2022-11-23T13:30:32.082Z,990.2
2022-11-23T13:31:43.892Z,990.2
2022-11-23T13:33:00.797Z,990.2
2022-11-23T13:34:17.810Z,990.2
2022-11-23T13:35:34.799Z,990.2
2022-11-23T13:38:08.818Z,990.2
2022-11-23T13:39:25.840Z,990.2
2022-11-23T13:40:42.861Z,990.2
2022-11-23T13:42:00.221Z,990.2
2022-11-23T13:43:16.856Z,990.2
2022-11-23T13:44:35.393Z,990.2
2022-11-23T13:45:51.839Z,990.2
2022-11-23T13:47:08.878Z,990.2
2022-11-23T13:49:42.841Z,990.3
2022-11-23T13:50:59.857Z,990.3
2022-11-23T13:52:17.034Z,990.3
2022-11-23T13:53:33.839Z,990.4
2022-11-23T13:54:50.825Z,990.3
2022-11-23T13:56:07.845Z,990.4
2022-11-23T13:57:25.176Z,990.4
2022-11-23T13:58:41.836Z,990.4
2022-11-23T13:59:59.643Z,990.4
2022-11-23T14:01:16.879Z,990.4
2022-11-23T14:02:33.934Z,990.4
2022-11-23T14:03:50.877Z,990.4
2022-11-23T14:05:07.957Z,990.4
2022-11-23T14:06:24.893Z,990.4
2022-11-23T14:07:41.876Z,990.5
2022-11-23T14:08:58.869Z,990.4
2022-11-23T14:10:15.815Z,990.5
2022-11-23T14:11:32.951Z,990.5
2022-11-23T14:12:49.898Z,990.5
2022-11-23T14:14:06.812Z,990.5
2022-11-23T14:15:23.820Z,990.5
2022-11-23T14:16:40.952Z,990.5
2022-11-23T14:17:57.897Z,990.5
2022-11-23T14:19:14.928Z,990.5
2022-11-23T14:20:31.841Z,990.5
2022-11-23T14:21:48.875Z,990.5
2022-11-23T14:23:05.996Z,990.5
2022-11-23T14:24:22.919Z,990.5
2022-11-23T14:25:39.896Z,990.5
2022-11-23T14:26:56.837Z,990.5
2022-11-23T14:28:13.873Z,990.5
2022-11-23T14:29:30.913Z,990.5
2022-11-23T14:30:47.869Z,990.5
2022-11-23T14:32:05.346Z,990.5
2022-11-23T14:33:21.856Z,990.5
2022-11-23T14:34:38.888Z,990.5
2022-11-23T14:35:56.137Z,990.5
2022-11-23T14:37:12.851Z,990.6
2022-11-23T14:38:33.333Z,990.6
2022-11-23T14:39:47.184Z,990.6
2022-11-23T14:41:03.908Z,990.6
2022-11-23T14:42:20.841Z,990.6
2022-11-23T14:43:37.888Z,990.6
2022-11-23T14:44:55.101Z,990.6
2022-11-23T14:46:11.958Z,990.6
2022-11-23T14:47:29.000Z,990.6
2022-11-23T14:48:45.894Z,990.6
2022-11-23T14:50:03.137Z,990.7
2022-11-23T14:51:20.254Z,990.7
2022-11-23T14:52:36.932Z,990.7
2022-11-23T14:53:53.929Z,990.7
2022-11-23T14:55:11.286Z,990.6
2022-11-23T14:56:27.936Z,990.7
2022-11-23T14:57:44.935Z,990.6
2022-11-23T14:59:01.881Z,990.6
2022-11-23T15:00:18.906Z,990.6
2022-11-23T15:01:35.976Z,990.6
2022-11-23T15:02:52.950Z,990.6
2022-11-23T15:04:10.470Z,990.6
2022-11-23T15:05:26.952Z,990.7
2022-11-23T15:06:45.668Z,990.7
2022-11-23T15:08:00.966Z,990.6
2022-11-23T15:09:17.896Z,990.6
2022-11-23T15:10:34.994Z,990.6
2022-11-23T15:11:51.974Z,990.6
2022-11-23T15:13:12.304Z,990.7
2022-11-23T15:14:25.913Z,990.6
2022-11-23T15:15:42.950Z,990.6
2022-11-23T15:17:00.053Z,990.6
2022-11-23T15:18:16.931Z,990.6
2022-11-23T15:19:33.905Z,990.7
2022-11-23T15:20:50.912Z,990.7
2022-11-23T15:22:07.935Z,990.6
2022-11-23T15:23:25.221Z,990.6
2022-11-23T15:24:42.326Z,990.6
2022-11-23T15:26:00.014Z,990.6
2022-11-23T15:27:17.062Z,990.7
2022-11-23T15:28:33.906Z,990.6
2022-11-23T15:29:51.052Z,990.7
2022-11-23T15:31:07.982Z,990.7
2022-11-23T15:32:34.117Z,990.6
2022-11-23T15:33:41.970Z,990.6
2022-11-23T15:34:58.986Z,990.6
2022-11-23T15:36:16.036Z,990.6
2022-11-23T15:37:32.980Z,990.6
2022-11-23T15:38:50.009Z,990.6
2022-11-23T15:40:07.125Z,990.6
2022-11-23T15:41:24.011Z,990.6
2022-11-23T15:42:41.010Z,990.6
2022-11-23T15:43:58.039Z,990.6
2022-11-23T15:45:15.054Z,990.7
2022-11-23T15:46:32.025Z,990.7
2022-11-23T15:47:48.994Z,990.7
2022-11-23T15:49:05.956Z,990.7
2022-11-23T15:50:23.023Z,990.7
2022-11-23T15:51:40.056Z,990.7
2022-11-23T15:52:56.994Z,990.7
2022-11-23T15:54:13.966Z,990.7
2022-11-23T15:55:31.020Z,990.6
2022-11-23T15:56:47.992Z,990.6
2022-11-23T15:58:04.998Z,990.6
2022-11-23T15:59:21.960Z,990.6
2022-11-23T16:00:38.990Z,990.6
2022-11-23T16:01:56.243Z,990.5
2022-11-23T16:03:13.071Z,990.5
2022-11-23T16:04:30.387Z,990.5
2022-11-23T16:05:47.022Z,990.5
2022-11-23T16:07:03.992Z,990.5
2022-11-23T16:08:21.000Z,990.5
2022-11-23T16:09:53.870Z,990.5
2022-11-23T16:10:54.992Z,990.5
2022-11-23T16:12:12.046Z,990.5
2022-11-23T16:13:28.997Z,990.5
2022-11-23T16:14:45.990Z,990.6
2022-11-23T16:16:03.209Z,990.6
2022-11-23T16:17:20.091Z,990.6
2022-11-23T16:18:37.022Z,990.6
2022-11-23T16:19:54.028Z,990.6
2022-11-23T16:21:11.025Z,990.6
2022-11-23T16:22:27.999Z,990.6
2022-11-23T16:23:44.983Z,990.6
2022-11-23T16:25:02.011Z,990.6
2022-11-23T16:26:19.204Z,990.6
2022-11-23T16:27:36.035Z,990.6
2022-11-23T16:28:52.999Z,990.6
2022-11-23T16:30:10.401Z,990.6
2022-11-23T16:31:27.150Z,990.6
2022-11-23T16:32:44.000Z,990.6
2022-11-23T16:34:01.011Z,990.5
2022-11-23T16:35:18.228Z,990.6
2022-11-23T16:36:35.070Z,990.5
2022-11-23T16:37:52.290Z,990.5
2022-11-23T16:39:09.030Z,990.5
2022-11-23T16:40:26.007Z,990.5
2022-11-23T16:41:43.096Z,990.5